Airfield :
LOGIN :

Register | Disclaimer

   EN    FR    IT 

 










Legend :    VFR   Marginal VFR   IFR   Intensive IFR   Very Intensive IFR
Visi :
Ceiling :
>= 8 km
>= 3000ft
5 to 8 km
1000 to 3000 ft
1500m to 5 km
500 to 1000 ft
800 to 1500m
200 to 500 ft
< 800m
< 200 ft
Symbols :   Thunderstorms  Fog  Heavy snow  Heavy precipitations  Wind > 20 kt
SIGMETs :     Misc.  Thunderstorms  Icing  Turbulence  Mountain Waves  Volcanic Ashes







- Airport Elevation : 288 ft
- IATA code : BZZ


EGVN - RAF Brize Norton

CURRENT METAR :
  • 121250Z 13001KT CAVOK 00/M02 Q1008 NOSIG

EXPIRED METARs :
  • 121150Z 21002KT CAVOK 00/M02 Q1008 BLU NOSIG
  • 121050Z 28003KT 7000 HZ BKN300 M01/M03 Q1009 WHT BECMG 9999 NSW BLU

TAF TAF EGVN
Valid from the 12 at 12:00 until the 13 at 12:00 UTC


121045Z 1212/1312 24005KT 9999 FEW035
BECMG 1219/1222 5000 -RA BKN012
TEMPO 1222/1302 3000 RADZ BKN004
BECMG 1302/1305 9999 NSW FEW012
PROB30 1305/1308 4000 BR BKN004
BECMG 1308/1310 BKN008
TEMPO 1308/1312 25016G26KT 4000 -RA BKN005
PROB30
TEMPO 1308/1311 3500 RA BKN003
No reported NOTAMs for that airfield.
1 SIGMET reported for the London FIR (EGTT) :
 
Severe turbulence
EGTT SIGMET 02 VALID 121100/121500 EGRR
EGTT LONDON FIR SEV TURB FCST WI N5100 W00754 - N5207 W00548 - N4929 W00441 - N4926 W00456 - N4856 W00729 - N5100 W00754 FL200/420 MOV E 05KT NC=



MET'MAP, your aeronautical weather chart ! - Copyright ORBIFLY December 2007 - Disclaimer

ORBIFLY MET'MAP TEAM :

Programming & Development : Alexandra Zaïnal
Concept & Development : Baudouin d'Aumeries
Co-Development & Prog : Marc-Olivier Méhu
Technical & hardware support : Manuel Goepfert

Contact : metmap@orbifly.com




SOURCES & CREDITS :

   NOAA